createdAt,value
2023-04-09T00:00:21.563Z,12.57
2023-04-09T00:04:04.236Z,11.77
2023-04-09T00:07:46.918Z,12.43
2023-04-09T00:11:31.188Z,11.40
2023-04-09T00:15:24.113Z,13.97
2023-04-09T00:19:13.364Z,11.37
2023-04-09T00:22:56.507Z,12.43
2023-04-09T00:26:41.021Z,11.30
2023-04-09T00:30:23.881Z,11.73
2023-04-09T00:34:07.046Z,11.97
2023-04-09T00:37:49.930Z,16.10
2023-04-09T00:41:32.633Z,14.57
2023-04-09T00:45:16.616Z,11.87
2023-04-09T00:48:59.290Z,13.13
2023-04-09T00:52:43.164Z,13.07
2023-04-09T00:56:25.839Z,11.73
2023-04-09T01:00:09.730Z,11.57
2023-04-09T01:03:53.793Z,14.20
2023-04-09T01:07:44.152Z,13.10
2023-04-09T01:11:33.486Z,12.87
2023-04-09T01:15:19.572Z,12.90
2023-04-09T01:19:10.769Z,12.13
2023-04-09T01:22:59.167Z,11.70
2023-04-09T01:26:49.265Z,12.07
2023-04-09T01:30:33.370Z,11.77
2023-04-09T01:34:16.718Z,12.37
2023-04-09T01:37:59.701Z,11.47
2023-04-09T01:41:42.632Z,11.33
2023-04-09T01:45:25.785Z,12.20
2023-04-09T01:49:15.697Z,12.80
2023-04-09T01:52:58.365Z,12.33
2023-04-09T01:56:42.243Z,11.77
2023-04-09T02:00:32.764Z,11.80
2023-04-09T02:04:21.440Z,11.20
2023-04-09T02:08:04.934Z,13.03
2023-04-09T02:11:48.988Z,10.60
2023-04-09T02:15:33.158Z,10.73
2023-04-09T02:19:15.913Z,12.83
2023-04-09T02:22:59.877Z,13.20
2023-04-09T02:26:42.537Z,11.17
2023-04-09T02:30:25.335Z,16.57
2023-04-09T02:34:08.030Z,12.03
2023-04-09T02:37:50.663Z,12.20
2023-04-09T02:41:34.660Z,13.40
2023-04-09T02:45:17.448Z,13.07
2023-04-09T02:49:00.131Z,14.73
2023-04-09T02:52:42.774Z,12.73
2023-04-09T02:56:25.409Z,13.63
2023-04-09T03:00:10.938Z,12.90
2023-04-09T03:03:53.710Z,12.13
2023-04-09T03:07:36.365Z,12.77
2023-04-09T03:11:19.028Z,12.60
2023-04-09T03:15:01.697Z,15.40
2023-04-09T03:18:45.699Z,14.07
2023-04-09T03:22:28.361Z,14.10
2023-04-09T03:26:10.989Z,13.60
2023-04-09T03:29:56.950Z,15.20
2023-04-09T03:33:39.573Z,15.47
2023-04-09T03:37:23.541Z,15.03
2023-04-09T03:41:06.262Z,15.07
2023-04-09T03:44:48.924Z,13.53
2023-04-09T03:48:31.725Z,15.10
2023-04-09T03:52:14.344Z,13.73
2023-04-09T03:55:58.358Z,14.27
2023-04-09T03:59:41.006Z,14.33
2023-04-09T04:03:23.765Z,13.37
2023-04-09T04:07:07.705Z,16.77
2023-04-09T04:10:50.343Z,14.67
2023-04-09T04:14:34.318Z,18.47
2023-04-09T04:18:16.947Z,16.80
2023-04-09T04:21:59.610Z,16.00
2023-04-09T04:25:42.932Z,18.00
2023-04-09T04:29:25.606Z,16.27
2023-04-09T04:33:09.735Z,17.93
2023-04-09T04:36:52.372Z,18.13
2023-04-09T04:40:36.813Z,17.90
2023-04-09T04:44:19.741Z,18.83
2023-04-09T04:48:02.421Z,19.20
2023-04-09T04:51:46.542Z,17.50
2023-04-09T04:55:29.178Z,20.43
2023-04-09T04:59:11.794Z,18.30
2023-04-09T05:02:54.590Z,17.60
2023-04-09T05:06:37.454Z,18.10
2023-04-09T05:10:21.852Z,19.37
2023-04-09T05:14:04.761Z,17.57
2023-04-09T05:17:47.448Z,19.57
2023-04-09T05:21:30.151Z,18.10
2023-04-09T05:25:15.989Z,20.30
2023-04-09T05:29:00.113Z,18.77
2023-04-09T05:32:42.800Z,21.30
2023-04-09T05:36:25.958Z,20.80
2023-04-09T05:40:09.751Z,19.80
2023-04-09T05:43:52.509Z,20.50
2023-04-09T05:47:36.963Z,20.80
2023-04-09T05:51:19.632Z,21.43
2023-04-09T05:55:02.253Z,20.73
2023-04-09T05:58:44.926Z,23.47
2023-04-09T06:02:27.843Z,23.83
2023-04-09T06:06:11.972Z,25.33
2023-04-09T06:09:56.038Z,22.73
2023-04-09T06:13:38.797Z,22.33
2023-04-09T06:17:21.718Z,21.33
2023-04-09T06:21:04.794Z,21.53
2023-04-09T06:24:48.766Z,22.17
2023-04-09T06:28:31.535Z,21.03
2023-04-09T06:32:14.213Z,19.53
2023-04-09T06:35:56.880Z,20.47
2023-04-09T06:39:42.540Z,22.03
2023-04-09T06:43:29.049Z,17.07
2023-04-09T06:47:11.809Z,19.13
2023-04-09T06:50:54.574Z,18.90
2023-04-09T06:54:37.230Z,18.67
2023-04-09T06:58:21.016Z,19.67
2023-04-09T07:02:05.206Z,18.23
2023-04-09T07:05:52.054Z,17.80
2023-04-09T07:09:34.831Z,17.40
2023-04-09T07:13:17.496Z,17.53
2023-04-09T07:17:00.126Z,16.43
2023-04-09T07:20:44.126Z,16.93
2023-04-09T07:24:26.778Z,16.33
2023-04-09T07:28:09.503Z,16.87
2023-04-09T07:31:52.192Z,16.97
2023-04-09T07:35:35.067Z,16.53
2023-04-09T07:39:19.454Z,15.17
2023-04-09T07:43:02.097Z,16.77
2023-04-09T07:46:45.073Z,16.07
2023-04-09T07:50:27.915Z,15.13
2023-04-09T07:54:10.637Z,15.70
2023-04-09T07:57:54.683Z,14.30
2023-04-09T08:01:37.746Z,16.43
2023-04-09T08:05:20.944Z,12.00
2023-04-09T08:09:03.783Z,14.57
2023-04-09T08:12:46.432Z,12.07
2023-04-09T08:16:31.197Z,13.07
2023-04-09T08:20:14.121Z,11.90
2023-04-09T08:24:01.222Z,13.87
2023-04-09T08:27:43.900Z,12.73
2023-04-09T08:31:27.356Z,14.90
2023-04-09T08:35:11.910Z,13.07
2023-04-09T08:38:56.005Z,18.47
2023-04-09T08:42:41.339Z,13.00
2023-04-09T08:46:24.879Z,13.30
2023-04-09T08:50:08.338Z,14.47
2023-04-09T08:53:57.574Z,15.83
2023-04-09T08:57:40.545Z,16.10
2023-04-09T09:01:24.127Z,14.83
2023-04-09T09:05:07.697Z,14.47
2023-04-09T09:09:01.485Z,13.87
2023-04-09T09:12:44.952Z,12.90
2023-04-09T09:16:28.267Z,13.53
2023-04-09T09:20:20.799Z,14.50
2023-04-09T09:24:17.796Z,14.50
2023-04-09T09:28:09.635Z,14.37
2023-04-09T09:31:53.846Z,15.60
2023-04-09T09:35:50.324Z,14.33
2023-04-09T09:39:45.484Z,15.97
2023-04-09T09:43:41.748Z,15.10
2023-04-09T09:47:25.402Z,17.17
2023-04-09T09:51:10.343Z,17.47
2023-04-09T09:54:55.741Z,16.20
2023-04-09T09:58:39.730Z,16.43
2023-04-09T10:02:26.769Z,14.23
2023-04-09T10:06:10.465Z,18.07
2023-04-09T10:09:55.707Z,14.20
2023-04-09T10:13:40.258Z,14.83
2023-04-09T10:17:23.023Z,16.23
2023-04-09T10:21:13.752Z,15.27
2023-04-09T10:24:58.126Z,15.47
2023-04-09T10:28:41.312Z,15.97
2023-04-09T10:32:26.599Z,17.13
2023-04-09T10:36:13.213Z,14.20
2023-04-09T10:39:57.920Z,15.10
2023-04-09T10:43:41.110Z,15.23
2023-04-09T10:47:32.907Z,15.97
2023-04-09T10:51:19.844Z,17.53
2023-04-09T10:55:04.068Z,16.87
2023-04-09T10:58:46.710Z,16.00
2023-04-09T11:02:59.235Z,15.53
2023-04-09T11:06:43.436Z,16.57
2023-04-09T11:10:28.374Z,15.73
2023-04-09T11:14:11.082Z,18.47
2023-04-09T11:17:53.949Z,18.43
2023-04-09T11:21:37.609Z,16.83
2023-04-09T11:25:21.358Z,17.03
2023-04-09T11:29:08.144Z,15.93
2023-04-09T11:32:51.380Z,16.30
2023-04-09T11:36:35.763Z,15.23
2023-04-09T11:40:19.535Z,16.50
2023-04-09T11:44:03.950Z,17.33
2023-04-09T11:47:48.411Z,16.13
2023-04-09T11:51:31.703Z,14.03
2023-04-09T11:55:24.138Z,16.80
2023-04-09T11:59:06.858Z,17.43
2023-04-09T12:02:51.810Z,15.87
2023-04-09T12:06:39.040Z,16.63
2023-04-09T12:10:27.095Z,16.97
2023-04-09T12:14:15.275Z,17.90
2023-04-09T12:18:01.150Z,18.03
2023-04-09T12:21:47.822Z,17.60
2023-04-09T12:25:30.928Z,18.77
2023-04-09T12:29:15.206Z,16.83
2023-04-09T12:32:59.581Z,15.60
2023-04-09T12:36:42.531Z,17.97
2023-04-09T12:40:25.224Z,16.70
2023-04-09T12:44:07.945Z,18.23
2023-04-09T12:47:51.113Z,16.23
2023-04-09T12:51:35.129Z,16.47
2023-04-09T12:55:17.881Z,17.43
2023-04-09T12:59:00.665Z,16.67
2023-04-09T13:02:43.656Z,13.73
2023-04-09T13:06:26.410Z,15.17
2023-04-09T13:10:11.095Z,14.63
2023-04-09T13:13:54.022Z,14.37
2023-04-09T13:17:36.932Z,15.10
2023-04-09T13:21:19.613Z,14.57
2023-04-09T13:25:02.228Z,14.10
2023-04-09T13:28:46.294Z,15.07
2023-04-09T13:32:28.994Z,14.20
2023-04-09T13:36:12.157Z,17.97
2023-04-09T13:39:54.879Z,17.53
2023-04-09T13:43:37.466Z,16.10
2023-04-09T13:47:21.760Z,16.40
2023-04-09T13:51:04.591Z,15.20
2023-04-09T13:54:47.249Z,16.43
2023-04-09T13:58:29.868Z,17.30
2023-04-09T14:02:12.594Z,18.80
2023-04-09T14:05:56.730Z,16.33
2023-04-09T14:09:39.385Z,15.10
2023-04-09T14:13:22.037Z,12.80
2023-04-09T14:17:04.747Z,14.30
2023-04-09T14:20:47.390Z,14.03
2023-04-09T14:24:31.377Z,15.17
2023-04-09T14:28:14.016Z,13.40
2023-04-09T14:31:57.400Z,12.03
2023-04-09T14:35:40.064Z,12.27
2023-04-09T14:39:22.747Z,10.80
2023-04-09T14:43:06.773Z,10.13
2023-04-09T14:46:49.454Z,10.97
2023-04-09T14:50:32.259Z,10.23
2023-04-09T14:54:17.627Z,10.97
2023-04-09T14:58:01.542Z,13.40
2023-04-09T15:01:45.567Z,13.40
2023-04-09T15:05:28.224Z,11.10
2023-04-09T15:09:10.830Z,11.90
2023-04-09T15:12:53.463Z,13.40
2023-04-09T15:16:37.434Z,10.37
2023-04-09T15:20:21.684Z,10.97
2023-04-09T15:24:04.463Z,11.50
2023-04-09T15:27:47.192Z,12.03
2023-04-09T15:31:29.885Z,9.97
2023-04-09T15:35:14.233Z,9.27
2023-04-09T15:38:58.211Z,8.57
2023-04-09T15:42:40.969Z,11.73
2023-04-09T15:46:23.634Z,12.47
2023-04-09T15:50:07.415Z,17.50
2023-04-09T15:53:50.047Z,10.60
2023-04-09T15:57:34.103Z,13.67
2023-04-09T16:01:17.262Z,10.37
2023-04-09T16:05:00.017Z,8.83
2023-04-09T16:08:42.656Z,8.37
2023-04-09T16:12:25.503Z,9.03
2023-04-09T16:16:09.860Z,14.03
2023-04-09T16:19:52.747Z,28.67
2023-04-09T16:23:35.390Z,20.93
2023-04-09T16:27:18.003Z,24.87
2023-04-09T16:31:00.741Z,31.93
2023-04-09T16:34:44.726Z,24.07
2023-04-09T16:38:29.201Z,47.43
2023-04-09T16:42:14.350Z,26.93
2023-04-09T16:45:57.148Z,93.00
2023-04-09T16:49:39.833Z,91.73
2023-04-09T16:53:23.833Z,41.20
2023-04-09T16:57:06.481Z,17.30
2023-04-09T17:00:50.704Z,23.30
2023-04-09T17:04:34.729Z,25.23
2023-04-09T17:08:17.850Z,18.53
2023-04-09T17:12:01.862Z,28.77
2023-04-09T17:15:44.468Z,16.50
2023-04-09T17:19:27.259Z,14.63
2023-04-09T17:23:09.978Z,30.20
2023-04-09T17:26:52.756Z,20.33
2023-04-09T17:30:36.861Z,16.23
2023-04-09T17:34:19.590Z,40.53
2023-04-09T17:38:02.369Z,33.30
2023-04-09T17:41:45.020Z,22.70
2023-04-09T17:45:27.766Z,17.10
2023-04-09T17:49:11.896Z,14.93
2023-04-09T17:52:54.572Z,11.37
2023-04-09T17:56:39.014Z,11.77
2023-04-09T18:00:21.783Z,10.40
2023-04-09T18:04:04.658Z,10.60
2023-04-09T18:07:48.870Z,10.03
2023-04-09T18:11:31.892Z,10.97
2023-04-09T18:15:15.100Z,13.80
2023-04-09T18:18:57.705Z,11.93
2023-04-09T18:22:41.287Z,10.27
2023-04-09T18:26:25.393Z,9.20
2023-04-09T18:30:09.072Z,8.83
2023-04-09T18:33:52.350Z,9.40
2023-04-09T18:37:35.148Z,9.47
2023-04-09T18:41:23.130Z,13.03
2023-04-09T18:45:07.905Z,10.40
2023-04-09T18:48:50.684Z,9.77
2023-04-09T18:52:33.501Z,13.07
2023-04-09T18:56:16.092Z,11.17
2023-04-09T18:59:58.696Z,13.13
2023-04-09T19:03:43.482Z,12.23
2023-04-09T19:07:26.417Z,17.63
2023-04-09T19:11:09.086Z,13.23
2023-04-09T19:14:51.714Z,13.03
2023-04-09T19:18:34.942Z,18.67
2023-04-09T19:22:18.890Z,18.53
2023-04-09T19:26:01.861Z,17.27
2023-04-09T19:29:46.187Z,15.37
2023-04-09T19:33:28.808Z,13.50
2023-04-09T19:37:34.692Z,15.67
2023-04-09T19:41:56.578Z,13.73
2023-04-09T19:45:39.647Z,13.83
2023-04-09T19:49:22.284Z,15.13
2023-04-09T19:53:06.917Z,15.00
2023-04-09T19:56:49.520Z,14.70
2023-04-09T20:00:33.432Z,16.40
2023-04-09T20:04:16.241Z,16.53
2023-04-09T20:07:59.291Z,15.03
2023-04-09T20:11:43.237Z,16.80
2023-04-09T20:15:26.613Z,15.37
2023-04-09T20:19:09.316Z,18.33
2023-04-09T20:22:56.109Z,19.97
2023-04-09T20:26:39.187Z,19.73
2023-04-09T20:30:23.554Z,17.47
2023-04-09T20:34:06.270Z,17.23
2023-04-09T20:37:49.937Z,16.23
2023-04-09T20:41:32.616Z,17.37
2023-04-09T20:45:15.700Z,17.37
2023-04-09T20:49:00.681Z,18.73
2023-04-09T20:52:43.284Z,16.27
2023-04-09T20:56:26.011Z,17.87
2023-04-09T21:00:10.175Z,19.60
2023-04-09T21:03:53.219Z,18.30
2023-04-09T21:07:37.289Z,15.53
2023-04-09T21:11:19.988Z,18.60
2023-04-09T21:15:02.636Z,19.33
2023-04-09T21:18:46.003Z,16.10
2023-04-09T21:22:28.588Z,16.60
2023-04-09T21:26:13.175Z,17.57
2023-04-09T21:29:55.805Z,16.40
2023-04-09T21:33:39.051Z,23.30
2023-04-09T21:37:21.885Z,15.30
2023-04-09T21:41:04.743Z,18.47
2023-04-09T21:44:48.733Z,14.50
2023-04-09T21:48:31.637Z,14.63
2023-04-09T21:52:15.177Z,16.63
2023-04-09T21:55:57.882Z,23.23
2023-04-09T21:59:41.241Z,17.33
2023-04-09T22:03:25.886Z,14.80
2023-04-09T22:07:08.712Z,16.20
2023-04-09T22:10:51.427Z,18.50
2023-04-09T22:14:34.112Z,14.50
2023-04-09T22:18:16.913Z,13.63
2023-04-09T22:22:00.956Z,14.07
2023-04-09T22:25:43.551Z,13.47
2023-04-09T22:29:26.514Z,14.63
2023-04-09T22:33:09.264Z,14.47
2023-04-09T22:36:51.992Z,15.23
2023-04-09T22:40:36.184Z,15.43
2023-04-09T22:44:19.076Z,15.07
2023-04-09T22:48:01.871Z,15.67
2023-04-09T22:51:44.522Z,13.83
2023-04-09T22:55:27.337Z,14.77
2023-04-09T22:59:11.325Z,16.77
2023-04-09T23:02:54.121Z,17.33
2023-04-09T23:06:37.716Z,15.53
2023-04-09T23:10:20.369Z,15.03
2023-04-09T23:14:03.052Z,14.87
2023-04-09T23:17:47.188Z,17.13
2023-04-09T23:21:29.841Z,17.27
2023-04-09T23:25:13.317Z,14.87
2023-04-09T23:28:56.006Z,15.97
2023-04-09T23:32:38.730Z,16.07
2023-04-09T23:36:24.144Z,15.30
2023-04-09T23:40:07.928Z,15.33
2023-04-09T23:43:51.793Z,15.50
2023-04-09T23:47:35.996Z,16.33
2023-04-09T23:51:19.226Z,13.33
2023-04-09T23:55:03.342Z,13.53
2023-04-09T23:58:46.375Z,13.87
